createdAt,value
2023-01-26T06:06:26.630Z,1.07
2023-01-26T06:09:03.508Z,0.90
2023-01-26T06:11:34.941Z,1.60
2023-01-26T06:14:23.337Z,2.33
2023-01-26T06:16:52.512Z,0.70
2023-01-26T06:19:20.711Z,0.70
2023-01-26T06:21:56.077Z,1.53
2023-01-26T06:24:24.875Z,0.80
2023-01-26T06:26:53.744Z,0.77
2023-01-26T06:29:23.369Z,0.80
2023-01-26T06:31:51.708Z,0.70
2023-01-26T06:34:21.575Z,1.43
2023-01-26T06:36:50.542Z,1.50
2023-01-26T06:39:27.706Z,0.90
2023-01-26T06:41:55.807Z,1.57
2023-01-26T06:44:23.881Z,1.20
2023-01-26T06:46:51.872Z,2.13
2023-01-26T06:49:20.282Z,3.43
2023-01-26T06:52:20.403Z,4.27
2023-01-26T06:54:52.843Z,3.37
2023-01-26T06:57:34.917Z,4.27
2023-01-26T07:00:14.499Z,5.97
2023-01-26T07:02:56.616Z,5.67
2023-01-26T07:05:24.660Z,4.27
2023-01-26T07:07:52.599Z,6.33
2023-01-26T07:10:22.407Z,4.77
2023-01-26T07:12:50.397Z,6.43
2023-01-26T07:15:18.496Z,4.07
2023-01-26T07:17:46.460Z,4.93
2023-01-26T07:20:14.646Z,8.17
2023-01-26T07:22:42.634Z,4.50
2023-01-26T07:25:10.826Z,7.47
2023-01-26T07:27:40.197Z,8.17
2023-01-26T07:30:10.013Z,11.30
2023-01-26T07:32:38.217Z,9.00
2023-01-26T07:35:07.184Z,6.97
2023-01-26T07:37:35.216Z,7.70
2023-01-26T07:40:03.707Z,8.53
2023-01-26T07:42:31.995Z,8.80
2023-01-26T07:45:08.754Z,10.47
2023-01-26T07:47:37.609Z,11.33
2023-01-26T07:50:07.255Z,10.30
2023-01-26T07:52:35.257Z,21.47
2023-01-26T07:55:03.280Z,11.60
2023-01-26T07:57:31.957Z,16.17
2023-01-26T07:59:59.920Z,18.90
2023-01-26T08:02:29.282Z,9.00
2023-01-26T08:04:57.484Z,18.03
2023-01-26T08:07:25.535Z,11.77
2023-01-26T08:09:53.468Z,18.30
2023-01-26T08:12:21.445Z,16.70
2023-01-26T08:14:49.429Z,14.87
2023-01-26T08:17:17.967Z,17.40
2023-01-26T08:19:47.592Z,21.07
2023-01-26T08:22:15.575Z,12.17
2023-01-26T08:24:43.566Z,19.80
2023-01-26T08:27:11.582Z,23.83
2023-01-26T08:29:39.626Z,18.47
2023-01-26T08:32:08.287Z,31.90
2023-01-26T08:34:36.498Z,30.77
2023-01-26T08:37:05.875Z,18.20
2023-01-26T08:39:33.821Z,12.07
2023-01-26T08:42:01.859Z,21.70
2023-01-26T08:44:29.827Z,12.83
2023-01-26T08:46:57.835Z,10.53
2023-01-26T08:49:25.889Z,13.00
2023-01-26T08:51:53.998Z,15.43
2023-01-26T08:54:23.435Z,12.73
2023-01-26T08:56:51.476Z,5.90
2023-01-26T08:59:19.447Z,5.30
2023-01-26T09:01:51.096Z,26.40
2023-01-26T09:04:19.331Z,4.97
2023-01-26T09:06:47.335Z,1.57
2023-01-26T09:09:15.398Z,3.87
2023-01-26T09:11:44.844Z,4.27
2023-01-26T09:14:12.849Z,5.03
2023-01-26T09:16:40.818Z,3.63
2023-01-26T09:19:08.914Z,4.87
2023-01-26T09:21:36.856Z,3.87
2023-01-26T09:24:05.281Z,2.27
2023-01-26T09:26:33.445Z,2.77
2023-01-26T09:29:03.650Z,2.60
2023-01-26T09:31:31.770Z,3.63
2023-01-26T09:33:59.801Z,3.17
2023-01-26T09:36:27.901Z,2.73
2023-01-26T09:38:55.845Z,2.87
2023-01-26T09:41:50.375Z,3.17
2023-01-26T09:44:21.661Z,3.03
2023-01-26T09:47:05.118Z,2.77
2023-01-26T09:49:46.022Z,2.00
2023-01-26T09:52:21.860Z,2.30
2023-01-26T09:54:53.044Z,1.43
2023-01-26T09:57:28.949Z,2.50
2023-01-26T10:00:02.247Z,1.73
2023-01-26T10:02:47.562Z,2.30
2023-01-26T10:05:21.744Z,1.97
2023-01-26T10:07:49.884Z,1.70
2023-01-26T10:10:28.735Z,1.83
2023-01-26T10:12:57.451Z,1.73
2023-01-26T10:15:32.397Z,1.70
2023-01-26T10:18:06.490Z,1.07
2023-01-26T10:20:37.255Z,1.37
2023-01-26T10:23:08.418Z,1.40
2023-01-26T10:25:38.801Z,2.10
2023-01-26T10:28:14.689Z,1.10
2023-01-26T10:30:46.284Z,1.73
2023-01-26T10:33:19.103Z,1.53
2023-01-26T10:35:47.779Z,2.27
2023-01-26T10:38:41.885Z,1.00
2023-01-26T10:41:27.521Z,1.47
2023-01-26T10:43:57.205Z,2.53
2023-01-26T10:46:29.818Z,1.60
2023-01-26T10:49:00.476Z,1.10
2023-01-26T10:51:31.481Z,1.10
2023-01-26T10:54:23.278Z,1.57
2023-01-26T10:56:54.018Z,1.60
2023-01-26T10:59:28.837Z,1.37
2023-01-26T11:02:01.376Z,1.53
2023-01-26T11:04:30.187Z,1.47
2023-01-26T11:07:25.187Z,1.70
2023-01-26T11:09:53.659Z,1.40
2023-01-26T11:12:23.089Z,2.33
2023-01-26T11:15:02.634Z,1.77
2023-01-26T11:17:39.137Z,1.70
2023-01-26T11:20:22.136Z,1.20
2023-01-26T11:22:59.582Z,1.30
2023-01-26T11:25:36.140Z,1.50
2023-01-26T11:28:31.337Z,2.03
2023-01-26T11:31:15.019Z,2.73
2023-01-26T11:33:52.758Z,1.60
2023-01-26T11:36:29.752Z,2.57
2023-01-26T11:39:06.931Z,2.07
2023-01-26T11:41:47.742Z,1.30
2023-01-26T11:44:35.292Z,1.97
2023-01-26T11:47:13.927Z,1.30
2023-01-26T11:50:08.021Z,1.70
2023-01-26T11:52:47.222Z,4.10
2023-01-26T11:55:26.719Z,1.67
2023-01-26T11:58:08.374Z,2.03
2023-01-26T12:00:42.111Z,1.50
2023-01-26T12:03:20.211Z,1.93
2023-01-26T12:05:54.613Z,1.83
2023-01-26T12:08:27.688Z,3.13
2023-01-26T12:11:22.393Z,1.27
2023-01-26T12:14:08.303Z,1.20
2023-01-26T12:16:44.533Z,1.70
2023-01-26T12:19:25.853Z,1.70
2023-01-26T12:22:01.676Z,1.93
2023-01-26T12:25:08.332Z,1.20
2023-01-26T12:27:35.874Z,1.27
2023-01-26T12:30:23.538Z,1.23
2023-01-26T12:32:52.218Z,1.20
2023-01-26T12:35:33.334Z,1.63
2023-01-26T12:38:17.964Z,1.37
2023-01-26T12:40:58.772Z,2.57
2023-01-26T12:43:39.572Z,1.13
2023-01-26T12:46:09.188Z,1.30
2023-01-26T12:48:44.228Z,1.10
2023-01-26T12:51:17.315Z,2.17
2023-01-26T12:53:54.762Z,1.07
2023-01-26T12:56:28.556Z,0.70
2023-01-26T12:58:59.299Z,0.70
2023-01-26T13:01:37.644Z,0.77
2023-01-26T13:04:09.828Z,1.73
2023-01-26T13:06:37.894Z,2.63
2023-01-26T13:09:21.379Z,0.60
2023-01-26T13:11:52.821Z,0.90
2023-01-26T13:14:36.012Z,0.60
2023-01-26T13:17:42.391Z,1.73
2023-01-26T13:20:27.716Z,1.13
2023-01-26T13:22:57.194Z,0.83
2023-01-26T13:25:33.715Z,0.60
2023-01-26T13:28:02.925Z,0.77
2023-01-26T13:30:46.090Z,0.73
2023-01-26T13:33:18.648Z,0.43
2023-01-26T13:35:47.317Z,0.53
2023-01-26T13:38:22.904Z,0.40
2023-01-26T13:40:52.253Z,0.87
2023-01-26T13:43:30.601Z,0.63
2023-01-26T13:46:10.785Z,1.00
2023-01-26T13:48:47.027Z,0.50
2023-01-26T13:51:18.354Z,1.43
2023-01-26T13:53:51.001Z,0.90
2023-01-26T13:56:30.749Z,0.40
2023-01-26T13:59:11.862Z,0.60
2023-01-26T14:01:44.927Z,0.50
2023-01-26T14:04:20.017Z,0.50
2023-01-26T14:06:53.190Z,0.50
2023-01-26T14:09:21.609Z,0.50
2023-01-26T14:11:59.972Z,0.50
2023-01-26T14:14:30.488Z,0.30
2023-01-26T14:16:59.931Z,1.23
2023-01-26T14:19:29.195Z,0.40
2023-01-26T14:22:00.159Z,0.60
2023-01-26T14:24:33.089Z,0.50
2023-01-26T14:27:02.808Z,0.70
2023-01-26T14:29:32.341Z,0.70
2023-01-26T14:32:01.242Z,0.50
2023-01-26T14:34:31.106Z,0.60
2023-01-26T14:37:12.970Z,1.57
2023-01-26T14:39:42.844Z,0.60
2023-01-26T14:42:15.386Z,0.47
2023-01-26T14:44:43.878Z,0.70
2023-01-26T14:47:19.415Z,0.70
2023-01-26T14:49:51.394Z,0.93
2023-01-26T14:52:25.064Z,0.80
2023-01-26T14:54:54.567Z,0.63
2023-01-26T14:57:26.200Z,0.73
2023-01-26T14:59:56.906Z,0.97
2023-01-26T15:02:27.292Z,1.10
2023-01-26T15:05:01.463Z,0.97
2023-01-26T15:07:38.905Z,1.10
2023-01-26T15:10:31.727Z,0.93
2023-01-26T15:13:04.374Z,1.03
2023-01-26T15:15:35.142Z,0.60
2023-01-26T15:18:17.561Z,0.50
2023-01-26T15:20:52.016Z,1.17
2023-01-26T15:23:29.564Z,0.70
2023-01-26T15:26:04.501Z,2.30
2023-01-26T15:28:34.289Z,0.37
2023-01-26T15:31:02.952Z,0.40
2023-01-26T15:33:52.451Z,0.50
2023-01-26T15:36:32.512Z,1.00
2023-01-26T15:39:04.071Z,1.03
2023-01-26T15:41:32.135Z,0.77
2023-01-26T15:44:01.455Z,0.80
2023-01-26T15:46:29.510Z,1.10
2023-01-26T15:48:57.496Z,0.80
2023-01-26T15:51:25.499Z,1.73
2023-01-26T15:53:53.465Z,0.80
2023-01-26T15:56:21.577Z,0.80
2023-01-26T15:58:49.570Z,0.77
2023-01-26T16:01:23.019Z,0.60
2023-01-26T16:03:51.800Z,0.60
2023-01-26T16:06:23.727Z,0.93
2023-01-26T16:08:52.043Z,0.50
2023-01-26T16:11:21.109Z,0.77
2023-01-26T16:14:02.461Z,0.40
2023-01-26T16:16:33.106Z,0.70
2023-01-26T16:19:01.243Z,0.30
2023-01-26T16:21:35.007Z,0.87
2023-01-26T16:24:03.635Z,0.40
2023-01-26T16:26:32.951Z,2.77
2023-01-26T16:29:01.080Z,0.70
2023-01-26T16:31:32.990Z,0.70
2023-01-26T16:34:01.649Z,0.60
2023-01-26T16:36:30.152Z,0.70
2023-01-26T16:38:58.238Z,0.70
2023-01-26T16:41:28.941Z,0.50
2023-01-26T16:43:58.561Z,0.30
2023-01-26T16:46:27.483Z,0.37
2023-01-26T16:48:57.538Z,0.63
2023-01-26T16:51:27.446Z,0.40
2023-01-26T16:53:56.053Z,0.30
2023-01-26T16:56:25.920Z,0.67
2023-01-26T16:58:53.969Z,0.40
2023-01-26T17:01:25.142Z,1.00
2023-01-26T17:03:53.192Z,0.70
2023-01-26T17:06:23.241Z,1.07
2023-01-26T17:08:51.475Z,0.57
2023-01-26T17:11:21.135Z,0.73
2023-01-26T17:13:49.586Z,0.30
2023-01-26T17:16:19.496Z,0.40
2023-01-26T17:18:48.598Z,2.13
2023-01-26T17:21:18.628Z,0.77
2023-01-26T17:23:49.803Z,0.33
2023-01-26T17:26:18.711Z,0.70
2023-01-26T17:28:48.972Z,0.67
2023-01-26T17:31:18.735Z,0.30
2023-01-26T17:33:48.174Z,0.17
2023-01-26T17:36:18.209Z,0.30
2023-01-26T17:38:46.232Z,0.93
2023-01-26T17:41:15.570Z,0.47
2023-01-26T17:43:43.583Z,0.23
2023-01-26T17:46:13.647Z,1.27
2023-01-26T17:48:44.919Z,0.50
2023-01-26T17:51:16.499Z,0.30
2023-01-26T17:53:46.129Z,0.67
2023-01-26T17:56:17.742Z,0.73
2023-01-26T17:58:48.785Z,0.20
